sensor_id;sensor_type;location;lat;lon;timestamp;P1;durP1;ratioP1;P2;durP2;ratioP2
63276;SDS011;49403;51.046;13.780;2023-05-16T00:00:05;9.93;;;8.18;;
63276;SDS011;49403;51.046;13.780;2023-05-16T00:00:39;11.82;;;7.95;;
63276;SDS011;49403;51.046;13.780;2023-05-16T00:01:10;9.90;;;8.07;;
63276;SDS011;49403;51.046;13.780;2023-05-16T00:01:41;13.00;;;8.50;;
63276;SDS011;49403;51.046;13.780;2023-05-16T00:02:13;10.00;;;7.63;;
63276;SDS011;49403;51.046;13.780;2023-05-16T00:02:45;11.43;;;7.85;;
63276;SDS011;49403;51.046;13.780;2023-05-16T00:03:17;10.10;;;7.40;;
63276;SDS011;49403;51.046;13.780;2023-05-16T00:03:48;11.50;;;8.13;;
63276;SDS011;49403;51.046;13.780;2023-05-16T00:04:19;11.57;;;7.90;;
63276;SDS011;49403;51.046;13.780;2023-05-16T00:04:51;12.35;;;8.40;;
63276;SDS011;49403;51.046;13.780;2023-05-16T00:05:23;12.32;;;7.82;;
63276;SDS011;49403;51.046;13.780;2023-05-16T00:05:55;13.48;;;8.15;;
63276;SDS011;49403;51.046;13.780;2023-05-16T00:06:27;10.88;;;7.88;;
63276;SDS011;49403;51.046;13.780;2023-05-16T00:06:57;12.45;;;8.20;;
63276;SDS011;49403;51.046;13.780;2023-05-16T00:07:29;14.30;;;7.85;;
63276;SDS011;49403;51.046;13.780;2023-05-16T00:08:00;12.45;;;8.43;;
63276;SDS011;49403;51.046;13.780;2023-05-16T00:08:31;10.60;;;8.18;;
63276;SDS011;49403;51.046;13.780;2023-05-16T00:09:02;10.65;;;8.05;;
63276;SDS011;49403;51.046;13.780;2023-05-16T00:09:33;11.48;;;7.78;;
63276;SDS011;49403;51.046;13.780;2023-05-16T00:10:04;9.93;;;8.18;;
63276;SDS011;49403;51.046;13.780;2023-05-16T00:10:36;10.43;;;7.90;;
63276;SDS011;49403;51.046;13.780;2023-05-16T00:11:07;9.30;;;8.05;;
63276;SDS011;49403;51.046;13.780;2023-05-16T00:11:38;11.10;;;8.05;;
63276;SDS011;49403;51.046;13.780;2023-05-16T00:12:10;10.55;;;7.82;;
63276;SDS011;49403;51.046;13.780;2023-05-16T00:12:41;12.52;;;8.27;;
63276;SDS011;49403;51.046;13.780;2023-05-16T00:13:13;12.40;;;7.78;;
63276;SDS011;49403;51.046;13.780;2023-05-16T00:13:44;11.70;;;7.75;;
63276;SDS011;49403;51.046;13.780;2023-05-16T00:14:16;10.07;;;7.93;;
63276;SDS011;49403;51.046;13.780;2023-05-16T00:14:48;13.25;;;8.20;;
63276;SDS011;49403;51.046;13.780;2023-05-16T00:15:21;10.07;;;8.00;;
63276;SDS011;49403;51.046;13.780;2023-05-16T00:15:54;12.65;;;8.32;;
63276;SDS011;49403;51.046;13.780;2023-05-16T00:16:25;13.02;;;8.52;;
63276;SDS011;49403;51.046;13.780;2023-05-16T00:16:58;10.18;;;8.52;;
63276;SDS011;49403;51.046;13.780;2023-05-16T00:17:30;10.20;;;7.85;;
63276;SDS011;49403;51.046;13.780;2023-05-16T00:18:01;11.68;;;8.20;;
63276;SDS011;49403;51.046;13.780;2023-05-16T00:18:32;11.38;;;7.78;;
63276;SDS011;49403;51.046;13.780;2023-05-16T00:19:06;12.80;;;8.05;;
63276;SDS011;49403;51.046;13.780;2023-05-16T00:19:37;11.85;;;8.15;;
63276;SDS011;49403;51.046;13.780;2023-05-16T00:20:09;13.95;;;8.65;;
63276;SDS011;49403;51.046;13.780;2023-05-16T00:20:40;10.82;;;8.02;;
63276;SDS011;49403;51.046;13.780;2023-05-16T00:21:11;12.98;;;8.38;;
63276;SDS011;49403;51.046;13.780;2023-05-16T00:21:43;14.65;;;8.75;;
63276;SDS011;49403;51.046;13.780;2023-05-16T00:22:16;11.40;;;8.65;;
63276;SDS011;49403;51.046;13.780;2023-05-16T00:22:48;12.43;;;8.40;;
63276;SDS011;49403;51.046;13.780;2023-05-16T00:23:19;10.75;;;8.00;;
63276;SDS011;49403;51.046;13.780;2023-05-16T00:23:50;10.32;;;7.75;;
63276;SDS011;49403;51.046;13.780;2023-05-16T00:24:22;10.50;;;8.10;;
63276;SDS011;49403;51.046;13.780;2023-05-16T00:24:53;10.32;;;8.00;;
63276;SDS011;49403;51.046;13.780;2023-05-16T00:25:24;12.23;;;8.77;;
63276;SDS011;49403;51.046;13.780;2023-05-16T00:25:55;9.80;;;7.80;;
63276;SDS011;49403;51.046;13.780;2023-05-16T00:26:26;11.40;;;8.43;;
63276;SDS011;49403;51.046;13.780;2023-05-16T00:26:57;10.85;;;8.50;;
63276;SDS011;49403;51.046;13.780;2023-05-16T00:27:29;15.32;;;8.10;;
63276;SDS011;49403;51.046;13.780;2023-05-16T00:28:00;12.40;;;8.02;;
63276;SDS011;49403;51.046;13.780;2023-05-16T00:28:31;10.93;;;8.40;;
63276;SDS011;49403;51.046;13.780;2023-05-16T00:29:02;10.77;;;8.02;;
63276;SDS011;49403;51.046;13.780;2023-05-16T00:29:33;10.90;;;8.23;;
63276;SDS011;49403;51.046;13.780;2023-05-16T00:30:05;10.05;;;8.13;;
63276;SDS011;49403;51.046;13.780;2023-05-16T00:30:36;11.30;;;8.57;;
63276;SDS011;49403;51.046;13.780;2023-05-16T00:31:07;11.50;;;8.45;;
63276;SDS011;49403;51.046;13.780;2023-05-16T00:31:39;12.02;;;8.43;;
63276;SDS011;49403;51.046;13.780;2023-05-16T00:32:10;10.30;;;8.05;;
63276;SDS011;49403;51.046;13.780;2023-05-16T00:32:41;14.52;;;8.82;;
63276;SDS011;49403;51.046;13.780;2023-05-16T00:33:13;13.70;;;8.82;;
63276;SDS011;49403;51.046;13.780;2023-05-16T00:33:44;11.00;;;8.45;;
63276;SDS011;49403;51.046;13.780;2023-05-16T00:34:15;12.45;;;8.30;;
63276;SDS011;49403;51.046;13.780;2023-05-16T00:34:46;13.57;;;8.60;;
63276;SDS011;49403;51.046;13.780;2023-05-16T00:35:17;11.30;;;8.52;;
63276;SDS011;49403;51.046;13.780;2023-05-16T00:35:49;11.07;;;8.55;;
63276;SDS011;49403;51.046;13.780;2023-05-16T00:36:20;11.63;;;8.38;;
63276;SDS011;49403;51.046;13.780;2023-05-16T00:36:52;12.10;;;8.43;;
63276;SDS011;49403;51.046;13.780;2023-05-16T00:37:23;10.13;;;8.32;;
63276;SDS011;49403;51.046;13.780;2023-05-16T00:37:54;11.40;;;8.88;;
63276;SDS011;49403;51.046;13.780;2023-05-16T00:38:25;13.23;;;9.82;;
63276;SDS011;49403;51.046;13.780;2023-05-16T00:38:56;12.57;;;8.82;;
63276;SDS011;49403;51.046;13.780;2023-05-16T00:39:27;11.60;;;8.75;;
63276;SDS011;49403;51.046;13.780;2023-05-16T00:39:59;11.88;;;8.65;;
63276;SDS011;49403;51.046;13.780;2023-05-16T00:40:31;14.38;;;8.68;;
63276;SDS011;49403;51.046;13.780;2023-05-16T00:41:02;14.70;;;8.52;;
63276;SDS011;49403;51.046;13.780;2023-05-16T00:41:33;12.35;;;8.63;;
63276;SDS011;49403;51.046;13.780;2023-05-16T00:42:04;14.30;;;8.48;;
63276;SDS011;49403;51.046;13.780;2023-05-16T00:42:37;12.60;;;8.73;;
63276;SDS011;49403;51.046;13.780;2023-05-16T00:43:08;12.23;;;8.55;;
63276;SDS011;49403;51.046;13.780;2023-05-16T00:43:39;12.32;;;8.48;;
63276;SDS011;49403;51.046;13.780;2023-05-16T00:44:11;11.77;;;8.88;;
63276;SDS011;49403;51.046;13.780;2023-05-16T00:44:42;12.80;;;8.77;;
63276;SDS011;49403;51.046;13.780;2023-05-16T00:45:13;15.30;;;9.10;;
63276;SDS011;49403;51.046;13.780;2023-05-16T00:45:44;11.88;;;8.65;;
63276;SDS011;49403;51.046;13.780;2023-05-16T00:46:15;10.90;;;8.50;;
63276;SDS011;49403;51.046;13.780;2023-05-16T00:46:49;12.15;;;7.95;;
63276;SDS011;49403;51.046;13.780;2023-05-16T00:47:20;10.18;;;8.25;;
63276;SDS011;49403;51.046;13.780;2023-05-16T00:47:52;13.10;;;8.80;;
63276;SDS011;49403;51.046;13.780;2023-05-16T00:48:23;14.13;;;9.10;;
63276;SDS011;49403;51.046;13.780;2023-05-16T00:48:54;13.15;;;8.48;;
63276;SDS011;49403;51.046;13.780;2023-05-16T00:49:26;11.25;;;8.82;;
63276;SDS011;49403;51.046;13.780;2023-05-16T00:49:57;10.88;;;8.65;;
63276;SDS011;49403;51.046;13.780;2023-05-16T00:50:28;12.95;;;9.23;;
63276;SDS011;49403;51.046;13.780;2023-05-16T00:50:59;11.80;;;8.68;;
63276;SDS011;49403;51.046;13.780;2023-05-16T00:51:30;12.73;;;8.52;;
63276;SDS011;49403;51.046;13.780;2023-05-16T00:52:02;16.15;;;8.38;;
63276;SDS011;49403;51.046;13.780;2023-05-16T00:52:33;9.90;;;8.10;;
63276;SDS011;49403;51.046;13.780;2023-05-16T00:53:05;10.52;;;8.00;;
63276;SDS011;49403;51.046;13.780;2023-05-16T00:53:36;12.13;;;8.68;;
63276;SDS011;49403;51.046;13.780;2023-05-16T00:54:07;13.68;;;8.60;;
63276;SDS011;49403;51.046;13.780;2023-05-16T00:54:38;12.07;;;8.68;;
63276;SDS011;49403;51.046;13.780;2023-05-16T00:55:09;12.02;;;9.18;;
63276;SDS011;49403;51.046;13.780;2023-05-16T00:55:41;11.82;;;8.95;;
63276;SDS011;49403;51.046;13.780;2023-05-16T00:56:13;10.52;;;8.82;;
63276;SDS011;49403;51.046;13.780;2023-05-16T00:56:44;14.25;;;9.20;;
63276;SDS011;49403;51.046;13.780;2023-05-16T00:57:15;10.45;;;8.90;;
63276;SDS011;49403;51.046;13.780;2023-05-16T00:57:47;10.60;;;8.85;;
63276;SDS011;49403;51.046;13.780;2023-05-16T00:58:18;11.50;;;8.60;;
63276;SDS011;49403;51.046;13.780;2023-05-16T00:58:52;10.80;;;8.68;;
63276;SDS011;49403;51.046;13.780;2023-05-16T00:59:23;13.52;;;8.32;;
63276;SDS011;49403;51.046;13.780;2023-05-16T00:59:55;19.00;;;8.60;;
63276;SDS011;49403;51.046;13.780;2023-05-16T01:00:26;10.82;;;8.85;;
63276;SDS011;49403;51.046;13.780;2023-05-16T01:00:58;13.98;;;8.88;;
63276;SDS011;49403;51.046;13.780;2023-05-16T01:01:32;13.10;;;8.85;;
63276;SDS011;49403;51.046;13.780;2023-05-16T01:02:05;13.23;;;9.10;;
63276;SDS011;49403;51.046;13.780;2023-05-16T01:02:37;10.70;;;8.43;;
63276;SDS011;49403;51.046;13.780;2023-05-16T01:03:08;10.90;;;8.80;;
63276;SDS011;49403;51.046;13.780;2023-05-16T01:03:42;13.95;;;8.65;;
63276;SDS011;49403;51.046;13.780;2023-05-16T01:04:14;11.60;;;9.07;;
63276;SDS011;49403;51.046;13.780;2023-05-16T01:04:46;12.35;;;8.85;;
63276;SDS011;49403;51.046;13.780;2023-05-16T01:05:20;12.57;;;8.82;;
63276;SDS011;49403;51.046;13.780;2023-05-16T01:05:52;13.98;;;9.18;;
63276;SDS011;49403;51.046;13.780;2023-05-16T01:06:23;13.73;;;8.75;;
63276;SDS011;49403;51.046;13.780;2023-05-16T01:06:55;11.70;;;8.88;;
63276;SDS011;49403;51.046;13.780;2023-05-16T01:07:26;15.02;;;8.80;;
63276;SDS011;49403;51.046;13.780;2023-05-16T01:07:58;11.38;;;8.90;;
63276;SDS011;49403;51.046;13.780;2023-05-16T01:08:29;10.82;;;8.88;;
63276;SDS011;49403;51.046;13.780;2023-05-16T01:09:00;13.20;;;9.20;;
63276;SDS011;49403;51.046;13.780;2023-05-16T01:09:31;11.02;;;8.68;;
63276;SDS011;49403;51.046;13.780;2023-05-16T01:10:03;13.02;;;8.60;;
63276;SDS011;49403;51.046;13.780;2023-05-16T01:10:38;13.25;;;8.60;;
63276;SDS011;49403;51.046;13.780;2023-05-16T01:11:21;12.20;;;8.95;;
63276;SDS011;49403;51.046;13.780;2023-05-16T01:11:55;12.30;;;8.90;;
63276;SDS011;49403;51.046;13.780;2023-05-16T01:13:00;12.00;;;8.73;;
63276;SDS011;49403;51.046;13.780;2023-05-16T01:15:25;14.95;;;8.63;;
63276;SDS011;49403;51.046;13.780;2023-05-16T01:16:49;12.15;;;8.82;;
63276;SDS011;49403;51.046;13.780;2023-05-16T01:18:07;17.38;;;9.27;;
63276;SDS011;49403;51.046;13.780;2023-05-16T01:22:00;12.18;;;8.80;;
63276;SDS011;49403;51.046;13.780;2023-05-16T01:24:18;16.42;;;9.05;;
63276;SDS011;49403;51.046;13.780;2023-05-16T01:25:44;17.52;;;9.10;;
63276;SDS011;49403;51.046;13.780;2023-05-16T01:26:34;12.00;;;8.68;;
63276;SDS011;49403;51.046;13.780;2023-05-16T01:27:06;10.55;;;8.70;;
63276;SDS011;49403;51.046;13.780;2023-05-16T01:27:39;16.05;;;9.63;;
63276;SDS011;49403;51.046;13.780;2023-05-16T01:28:14;13.35;;;9.13;;
63276;SDS011;49403;51.046;13.780;2023-05-16T01:28:47;12.50;;;9.18;;
63276;SDS011;49403;51.046;13.780;2023-05-16T01:29:20;13.10;;;9.30;;
63276;SDS011;49403;51.046;13.780;2023-05-16T01:29:54;13.07;;;9.40;;
63276;SDS011;49403;51.046;13.780;2023-05-16T01:30:26;11.80;;;9.15;;
63276;SDS011;49403;51.046;13.780;2023-05-16T01:31:01;16.52;;;9.57;;
63276;SDS011;49403;51.046;13.780;2023-05-16T01:31:33;15.45;;;9.50;;
63276;SDS011;49403;51.046;13.780;2023-05-16T01:32:04;13.73;;;9.60;;
63276;SDS011;49403;51.046;13.780;2023-05-16T01:32:35;12.68;;;9.50;;
63276;SDS011;49403;51.046;13.780;2023-05-16T01:33:07;12.90;;;8.85;;
63276;SDS011;49403;51.046;13.780;2023-05-16T01:33:39;12.82;;;9.13;;
63276;SDS011;49403;51.046;13.780;2023-05-16T01:34:10;11.98;;;9.57;;
63276;SDS011;49403;51.046;13.780;2023-05-16T01:34:41;13.43;;;9.55;;
63276;SDS011;49403;51.046;13.780;2023-05-16T01:35:16;14.40;;;9.07;;
63276;SDS011;49403;51.046;13.780;2023-05-16T01:35:52;13.55;;;9.05;;
63276;SDS011;49403;51.046;13.780;2023-05-16T01:36:35;12.57;;;9.45;;
63276;SDS011;49403;51.046;13.780;2023-05-16T01:37:23;15.05;;;9.68;;
63276;SDS011;49403;51.046;13.780;2023-05-16T01:38:10;12.10;;;9.45;;
63276;SDS011;49403;51.046;13.780;2023-05-16T01:39:58;12.57;;;9.45;;
63276;SDS011;49403;51.046;13.780;2023-05-16T01:42:24;12.95;;;8.90;;
63276;SDS011;49403;51.046;13.780;2023-05-16T01:43:03;13.77;;;8.88;;
63276;SDS011;49403;51.046;13.780;2023-05-16T01:43:51;11.85;;;9.13;;
63276;SDS011;49403;51.046;13.780;2023-05-16T01:45:31;15.13;;;9.07;;
63276;SDS011;49403;51.046;13.780;2023-05-16T01:46:19;11.25;;;9.05;;
63276;SDS011;49403;51.046;13.780;2023-05-16T01:46:55;15.25;;;8.70;;
63276;SDS011;49403;51.046;13.780;2023-05-16T01:47:31;14.05;;;9.27;;
63276;SDS011;49403;51.046;13.780;2023-05-16T01:48:16;10.52;;;8.68;;
63276;SDS011;49403;51.046;13.780;2023-05-16T01:48:52;14.38;;;9.50;;
63276;SDS011;49403;51.046;13.780;2023-05-16T01:49:35;10.63;;;8.98;;
63276;SDS011;49403;51.046;13.780;2023-05-16T01:50:13;13.82;;;9.60;;
63276;SDS011;49403;51.046;13.780;2023-05-16T01:50:51;12.25;;;9.25;;
63276;SDS011;49403;51.046;13.780;2023-05-16T01:51:28;12.40;;;9.02;;
63276;SDS011;49403;51.046;13.780;2023-05-16T01:52:07;15.57;;;9.48;;
63276;SDS011;49403;51.046;13.780;2023-05-16T01:53:18;13.93;;;9.40;;
63276;SDS011;49403;51.046;13.780;2023-05-16T01:54:01;11.90;;;9.15;;
63276;SDS011;49403;51.046;13.780;2023-05-16T01:54:36;11.38;;;9.43;;
63276;SDS011;49403;51.046;13.780;2023-05-16T01:55:14;14.77;;;9.38;;
63276;SDS011;49403;51.046;13.780;2023-05-16T01:55:55;15.82;;;9.52;;
63276;SDS011;49403;51.046;13.780;2023-05-16T01:56:29;12.15;;;9.68;;
63276;SDS011;49403;51.046;13.780;2023-05-16T01:57:01;12.88;;;9.45;;
63276;SDS011;49403;51.046;13.780;2023-05-16T01:57:37;15.75;;;9.73;;
63276;SDS011;49403;51.046;13.780;2023-05-16T01:58:09;15.90;;;9.40;;
63276;SDS011;49403;51.046;13.780;2023-05-16T01:58:41;12.00;;;9.00;;
63276;SDS011;49403;51.046;13.780;2023-05-16T01:59:16;14.27;;;9.45;;
63276;SDS011;49403;51.046;13.780;2023-05-16T01:59:48;12.60;;;9.05;;
63276;SDS011;49403;51.046;13.780;2023-05-16T02:00:20;10.90;;;8.98;;
63276;SDS011;49403;51.046;13.780;2023-05-16T02:00:52;13.27;;;9.40;;
63276;SDS011;49403;51.046;13.780;2023-05-16T02:01:24;13.38;;;9.25;;
63276;SDS011;49403;51.046;13.780;2023-05-16T02:01:58;11.27;;;9.15;;
63276;SDS011;49403;51.046;13.780;2023-05-16T02:02:30;12.00;;;9.00;;
63276;SDS011;49403;51.046;13.780;2023-05-16T02:03:03;13.20;;;9.20;;
63276;SDS011;49403;51.046;13.780;2023-05-16T02:03:35;13.45;;;9.25;;
63276;SDS011;49403;51.046;13.780;2023-05-16T02:04:08;12.85;;;9.10;;
63276;SDS011;49403;51.046;13.780;2023-05-16T02:04:39;12.57;;;9.10;;
63276;SDS011;49403;51.046;13.780;2023-05-16T02:05:13;17.58;;;9.52;;
63276;SDS011;49403;51.046;13.780;2023-05-16T02:05:45;12.63;;;9.23;;
63276;SDS011;49403;51.046;13.780;2023-05-16T02:06:16;15.60;;;9.68;;
63276;SDS011;49403;51.046;13.780;2023-05-16T02:06:47;13.05;;;9.35;;
63276;SDS011;49403;51.046;13.780;2023-05-16T02:07:18;13.38;;;9.70;;
63276;SDS011;49403;51.046;13.780;2023-05-16T02:07:50;15.27;;;9.20;;
63276;SDS011;49403;51.046;13.780;2023-05-16T02:08:25;15.20;;;9.07;;
63276;SDS011;49403;51.046;13.780;2023-05-16T02:09:00;12.02;;;9.20;;
63276;SDS011;49403;51.046;13.780;2023-05-16T02:09:35;12.52;;;9.02;;
63276;SDS011;49403;51.046;13.780;2023-05-16T02:10:09;13.30;;;9.30;;
63276;SDS011;49403;51.046;13.780;2023-05-16T02:10:42;16.38;;;9.35;;
63276;SDS011;49403;51.046;13.780;2023-05-16T02:11:14;13.88;;;9.65;;
63276;SDS011;49403;51.046;13.780;2023-05-16T02:11:45;11.05;;;9.02;;
63276;SDS011;49403;51.046;13.780;2023-05-16T02:12:16;14.23;;;9.43;;
63276;SDS011;49403;51.046;13.780;2023-05-16T02:12:48;13.63;;;9.30;;
63276;SDS011;49403;51.046;13.780;2023-05-16T02:13:20;12.60;;;9.35;;
63276;SDS011;49403;51.046;13.780;2023-05-16T02:13:52;12.30;;;9.50;;
63276;SDS011;49403;51.046;13.780;2023-05-16T02:14:23;15.40;;;9.88;;
63276;SDS011;49403;51.046;13.780;2023-05-16T02:14:55;14.38;;;9.10;;
63276;SDS011;49403;51.046;13.780;2023-05-16T02:15:26;13.48;;;9.82;;
63276;SDS011;49403;51.046;13.780;2023-05-16T02:15:57;13.30;;;10.05;;
63276;SDS011;49403;51.046;13.780;2023-05-16T02:16:29;12.38;;;9.45;;
63276;SDS011;49403;51.046;13.780;2023-05-16T02:17:03;12.13;;;9.32;;
63276;SDS011;49403;51.046;13.780;2023-05-16T02:17:35;14.10;;;9.63;;
63276;SDS011;49403;51.046;13.780;2023-05-16T02:18:06;15.57;;;9.90;;
63276;SDS011;49403;51.046;13.780;2023-05-16T02:18:41;13.27;;;9.48;;
63276;SDS011;49403;51.046;13.780;2023-05-16T02:19:14;13.18;;;9.20;;
63276;SDS011;49403;51.046;13.780;2023-05-16T02:19:45;13.10;;;9.23;;
63276;SDS011;49403;51.046;13.780;2023-05-16T02:20:16;13.70;;;9.93;;
63276;SDS011;49403;51.046;13.780;2023-05-16T02:20:48;13.18;;;9.43;;
63276;SDS011;49403;51.046;13.780;2023-05-16T02:21:22;14.32;;;9.52;;
63276;SDS011;49403;51.046;13.780;2023-05-16T02:21:54;12.30;;;9.30;;
63276;SDS011;49403;51.046;13.780;2023-05-16T02:22:26;14.38;;;9.70;;
63276;SDS011;49403;51.046;13.780;2023-05-16T02:22:57;15.95;;;9.52;;
63276;SDS011;49403;51.046;13.780;2023-05-16T02:23:28;12.32;;;9.20;;
63276;SDS011;49403;51.046;13.780;2023-05-16T02:24:00;11.95;;;9.80;;
63276;SDS011;49403;51.046;13.780;2023-05-16T02:24:31;13.07;;;9.38;;
63276;SDS011;49403;51.046;13.780;2023-05-16T02:25:05;15.75;;;10.18;;
63276;SDS011;49403;51.046;13.780;2023-05-16T02:25:38;14.77;;;9.48;;
63276;SDS011;49403;51.046;13.780;2023-05-16T02:26:12;14.07;;;9.85;;
63276;SDS011;49403;51.046;13.780;2023-05-16T02:26:43;13.55;;;9.30;;
63276;SDS011;49403;51.046;13.780;2023-05-16T02:27:15;12.65;;;9.63;;
63276;SDS011;49403;51.046;13.780;2023-05-16T02:27:46;16.05;;;9.65;;
63276;SDS011;49403;51.046;13.780;2023-05-16T02:28:18;11.40;;;9.60;;
63276;SDS011;49403;51.046;13.780;2023-05-16T02:28:50;13.38;;;9.55;;
63276;SDS011;49403;51.046;13.780;2023-05-16T02:29:24;12.80;;;9.43;;
63276;SDS011;49403;51.046;13.780;2023-05-16T02:29:58;12.50;;;9.73;;
63276;SDS011;49403;51.046;13.780;2023-05-16T02:30:29;13.38;;;9.90;;
63276;SDS011;49403;51.046;13.780;2023-05-16T02:31:03;11.70;;;9.45;;
63276;SDS011;49403;51.046;13.780;2023-05-16T02:31:37;14.05;;;9.68;;
63276;SDS011;49403;51.046;13.780;2023-05-16T02:32:08;14.23;;;9.23;;
63276;SDS011;49403;51.046;13.780;2023-05-16T02:32:42;12.38;;;9.55;;
63276;SDS011;49403;51.046;13.780;2023-05-16T02:33:18;15.20;;;10.30;;
63276;SDS011;49403;51.046;13.780;2023-05-16T02:33:49;13.13;;;10.05;;
63276;SDS011;49403;51.046;13.780;2023-05-16T02:34:20;17.85;;;11.38;;
63276;SDS011;49403;51.046;13.780;2023-05-16T02:34:54;16.75;;;12.77;;
63276;SDS011;49403;51.046;13.780;2023-05-16T02:35:26;16.73;;;11.32;;
63276;SDS011;49403;51.046;13.780;2023-05-16T02:35:59;13.23;;;10.27;;
63276;SDS011;49403;51.046;13.780;2023-05-16T02:36:31;15.02;;;10.15;;
63276;SDS011;49403;51.046;13.780;2023-05-16T02:37:05;15.07;;;10.18;;
63276;SDS011;49403;51.046;13.780;2023-05-16T02:37:36;14.25;;;10.02;;
63276;SDS011;49403;51.046;13.780;2023-05-16T02:38:10;12.55;;;9.93;;
63276;SDS011;49403;51.046;13.780;2023-05-16T02:38:46;13.27;;;9.60;;
63276;SDS011;49403;51.046;13.780;2023-05-16T02:39:17;13.50;;;9.63;;
63276;SDS011;49403;51.046;13.780;2023-05-16T02:39:48;15.20;;;9.85;;
63276;SDS011;49403;51.046;13.780;2023-05-16T02:40:20;14.00;;;9.35;;
63276;SDS011;49403;51.046;13.780;2023-05-16T02:40:51;13.18;;;9.70;;
63276;SDS011;49403;51.046;13.780;2023-05-16T02:41:22;14.13;;;9.60;;
63276;SDS011;49403;51.046;13.780;2023-05-16T02:41:54;12.00;;;9.63;;
63276;SDS011;49403;51.046;13.780;2023-05-16T02:42:25;14.07;;;9.70;;
63276;SDS011;49403;51.046;13.780;2023-05-16T02:42:59;13.30;;;9.43;;
63276;SDS011;49403;51.046;13.780;2023-05-16T02:43:31;16.27;;;9.48;;
63276;SDS011;49403;51.046;13.780;2023-05-16T02:44:02;12.38;;;9.27;;
63276;SDS011;49403;51.046;13.780;2023-05-16T02:44:33;15.38;;;9.77;;
63276;SDS011;49403;51.046;13.780;2023-05-16T02:45:04;12.93;;;9.40;;
63276;SDS011;49403;51.046;13.780;2023-05-16T02:45:36;12.38;;;9.52;;
63276;SDS011;49403;51.046;13.780;2023-05-16T02:46:23;19.20;;;9.98;;
63276;SDS011;49403;51.046;13.780;2023-05-16T02:46:56;13.63;;;10.10;;
63276;SDS011;49403;51.046;13.780;2023-05-16T02:47:27;11.70;;;9.02;;
63276;SDS011;49403;51.046;13.780;2023-05-16T02:47:58;12.30;;;9.57;;
63276;SDS011;49403;51.046;13.780;2023-05-16T02:48:29;13.57;;;9.82;;
63276;SDS011;49403;51.046;13.780;2023-05-16T02:49:01;13.68;;;9.82;;
63276;SDS011;49403;51.046;13.780;2023-05-16T02:49:32;13.38;;;10.07;;
63276;SDS011;49403;51.046;13.780;2023-05-16T02:50:03;14.88;;;9.65;;
63276;SDS011;49403;51.046;13.780;2023-05-16T02:50:35;12.15;;;9.55;;
63276;SDS011;49403;51.046;13.780;2023-05-16T02:51:06;13.38;;;9.77;;
63276;SDS011;49403;51.046;13.780;2023-05-16T02:51:37;14.77;;;9.95;;
63276;SDS011;49403;51.046;13.780;2023-05-16T02:52:08;15.15;;;9.43;;
63276;SDS011;49403;51.046;13.780;2023-05-16T02:52:40;15.13;;;10.35;;
63276;SDS011;49403;51.046;13.780;2023-05-16T02:53:11;12.32;;;9.45;;
63276;SDS011;49403;51.046;13.780;2023-05-16T02:53:43;15.80;;;9.85;;
63276;SDS011;49403;51.046;13.780;2023-05-16T02:54:14;17.02;;;9.48;;
63276;SDS011;49403;51.046;13.780;2023-05-16T02:54:45;14.82;;;9.98;;
63276;SDS011;49403;51.046;13.780;2023-05-16T02:55:16;11.10;;;9.23;;
63276;SDS011;49403;51.046;13.780;2023-05-16T02:55:47;13.90;;;9.90;;
63276;SDS011;49403;51.046;13.780;2023-05-16T02:56:18;16.15;;;10.38;;
63276;SDS011;49403;51.046;13.780;2023-05-16T02:56:50;14.93;;;9.70;;
63276;SDS011;49403;51.046;13.780;2023-05-16T02:57:22;13.35;;;9.43;;
63276;SDS011;49403;51.046;13.780;2023-05-16T02:57:53;18.15;;;9.75;;
63276;SDS011;49403;51.046;13.780;2023-05-16T02:58:24;14.40;;;9.90;;
63276;SDS011;49403;51.046;13.780;2023-05-16T02:58:55;13.18;;;9.93;;
63276;SDS011;49403;51.046;13.780;2023-05-16T02:59:26;13.75;;;9.70;;
63276;SDS011;49403;51.046;13.780;2023-05-16T02:59:57;13.23;;;9.75;;
63276;SDS011;49403;51.046;13.780;2023-05-16T03:00:29;13.45;;;9.70;;
63276;SDS011;49403;51.046;13.780;2023-05-16T03:01:00;16.33;;;9.63;;
63276;SDS011;49403;51.046;13.780;2023-05-16T03:01:31;13.38;;;9.70;;
63276;SDS011;49403;51.046;13.780;2023-05-16T03:02:02;13.85;;;9.38;;
63276;SDS011;49403;51.046;13.780;2023-05-16T03:02:33;14.00;;;9.50;;
63276;SDS011;49403;51.046;13.780;2023-05-16T03:03:04;14.65;;;9.95;;
63276;SDS011;49403;51.046;13.780;2023-05-16T03:03:36;11.77;;;9.63;;
63276;SDS011;49403;51.046;13.780;2023-05-16T03:04:07;13.82;;;9.90;;
63276;SDS011;49403;51.046;13.780;2023-05-16T03:04:38;12.82;;;9.95;;
63276;SDS011;49403;51.046;13.780;2023-05-16T03:05:09;14.68;;;10.15;;
63276;SDS011;49403;51.046;13.780;2023-05-16T03:05:40;14.23;;;9.18;;
63276;SDS011;49403;51.046;13.780;2023-05-16T03:06:12;14.60;;;9.55;;
63276;SDS011;49403;51.046;13.780;2023-05-16T03:06:43;14.85;;;9.73;;
63276;SDS011;49403;51.046;13.780;2023-05-16T03:07:14;12.48;;;9.57;;
63276;SDS011;49403;51.046;13.780;2023-05-16T03:07:45;11.48;;;9.43;;
63276;SDS011;49403;51.046;13.780;2023-05-16T03:08:16;14.32;;;9.60;;
63276;SDS011;49403;51.046;13.780;2023-05-16T03:08:47;12.15;;;9.65;;
63276;SDS011;49403;51.046;13.780;2023-05-16T03:09:18;12.02;;;10.10;;
63276;SDS011;49403;51.046;13.780;2023-05-16T03:09:49;12.95;;;9.63;;
63276;SDS011;49403;51.046;13.780;2023-05-16T03:10:20;15.23;;;9.88;;
63276;SDS011;49403;51.046;13.780;2023-05-16T03:10:51;12.45;;;9.32;;
63276;SDS011;49403;51.046;13.780;2023-05-16T03:11:22;12.77;;;9.88;;
63276;SDS011;49403;51.046;13.780;2023-05-16T03:11:55;12.32;;;9.70;;
63276;SDS011;49403;51.046;13.780;2023-05-16T03:12:28;15.07;;;9.15;;
63276;SDS011;49403;51.046;13.780;2023-05-16T03:12:59;13.68;;;9.40;;
63276;SDS011;49403;51.046;13.780;2023-05-16T03:13:30;13.13;;;9.82;;
63276;SDS011;49403;51.046;13.780;2023-05-16T03:14:02;13.45;;;9.68;;
63276;SDS011;49403;51.046;13.780;2023-05-16T03:14:33;12.55;;;10.23;;
63276;SDS011;49403;51.046;13.780;2023-05-16T03:15:05;20.58;;;10.07;;
63276;SDS011;49403;51.046;13.780;2023-05-16T03:15:39;12.02;;;9.85;;
63276;SDS011;49403;51.046;13.780;2023-05-16T03:16:10;13.60;;;10.60;;
63276;SDS011;49403;51.046;13.780;2023-05-16T03:16:41;11.75;;;10.05;;
63276;SDS011;49403;51.046;13.780;2023-05-16T03:17:13;18.13;;;10.98;;
63276;SDS011;49403;51.046;13.780;2023-05-16T03:17:44;14.63;;;9.77;;
63276;SDS011;49403;51.046;13.780;2023-05-16T03:18:15;12.68;;;10.60;;
63276;SDS011;49403;51.046;13.780;2023-05-16T03:18:46;13.50;;;10.27;;
63276;SDS011;49403;51.046;13.780;2023-05-16T03:19:17;12.40;;;9.65;;
63276;SDS011;49403;51.046;13.780;2023-05-16T03:19:48;12.65;;;9.82;;
63276;SDS011;49403;51.046;13.780;2023-05-16T03:20:20;14.32;;;10.02;;
63276;SDS011;49403;51.046;13.780;2023-05-16T03:20:51;12.57;;;9.82;;
63276;SDS011;49403;51.046;13.780;2023-05-16T03:21:22;15.63;;;10.32;;
63276;SDS011;49403;51.046;13.780;2023-05-16T03:21:53;15.32;;;10.43;;
63276;SDS011;49403;51.046;13.780;2023-05-16T03:22:25;15.32;;;10.07;;
63276;SDS011;49403;51.046;13.780;2023-05-16T03:22:56;14.95;;;10.32;;
63276;SDS011;49403;51.046;13.780;2023-05-16T03:23:27;13.18;;;10.30;;
63276;SDS011;49403;51.046;13.780;2023-05-16T03:23:58;18.17;;;10.93;;
63276;SDS011;49403;51.046;13.780;2023-05-16T03:24:29;14.32;;;10.10;;